Aktuelles Wetter in Potsdam (Telegrafenberg, 81m)

Tag Datum Stunde Luftdruck Temperatur Luftfeuchte Niederschlag Windrichtung Windgeschw. Windspitzen Wolken
hPa °C % mm ° km/h km/h
Sonntag, 23.07.2017, 22:00 1013.1 18.1 76 0.0 W 8 11 bewölkt
Sonntag, 23.07.2017, 21:30 1013.0 18.8 74 0.0 W 8 11 ---
Sonntag, 23.07.2017, 21:00 1012.8 18.9 71 0.0 W 8 10 bewölkt
Sonntag, 23.07.2017, 20:30 1012.7 19.5 67 0.0 W 6 10 bewölkt
Sonntag, 23.07.2017, 20:00 1012.8 20.1 17.2 24.6 70 0.0 7 0
Sonntag, 23.07.2017, 19:30 1012.8 20.6 63 0.0 W 10 19 bewölkt
Sonntag, 23.07.2017, 19:00 1012.6 21.7 55 0.0 W 13 30 heiter
Sonntag, 23.07.2017, 18:30 1012.6 21.9 52 0.0 W 17 30 heiter
Sonntag, 23.07.2017, 18:00 1012.7 23.0 55 0.0 W 14 36 heiter
Sonntag, 23.07.2017, 17:30 1012.7 23.2 55 0.0 W 19 36 heiter
Sonntag, 23.07.2017, 17:00 1012.7 22.1 63 0.0 W 15 36 bewölkt
Sonntag, 23.07.2017, 16:30 1012.7 21.8 65 0.0 W 20 36 bewölkt
Sonntag, 23.07.2017, 16:00 1012.6 21.7 67 0.0 W 18 43 bewölkt
Sonntag, 23.07.2017, 15:30 1012.2 23.7 71 0.0 SW 17 33 ---
Sonntag, 23.07.2017, 15:00 1012.3 23.8 58 0.0 W 16 33 heiter
Sonntag, 23.07.2017, 14:30 1012.6 23.0 63 0.0 SW 12 24 heiter
Sonntag, 23.07.2017, 14:00 1012.6 22.5 71 0.0 SW 17 30 heiter
Sonntag, 23.07.2017, 13:30 1012.7 21.4 80 0.0 SW 9 23 bewölkt
Sonntag, 23.07.2017, 13:00 1012.8 22.3 79 0.0 SW 16 27 Regenschauer
Sonntag, 23.07.2017, 12:30 1013.1 20.6 88 0.0 SW 15 26 stark bewölkt
Sonntag, 23.07.2017, 12:00 1012.9 20.3 91 0.0 SW 13 23 stark bewölkt